4CA3 weather

Camp Parks Heliport
Pleasanton, California, United States

Public forecast

Using degrees Fahrenheit for public forecast. Weather courtesy of forecast.io.

Closest aviation weather report (METAR) to Camp Parks Heliport

Closest report is Livermore Municipal Airport, 3.6 nm (6.6 km) ESE. Retrieved 2020/08/08 07:53 UTC (1 hour ago):

KLVK 080753Z AUTO 31004KT 10SM CLR 18/11 A2993 RMK AO2 SLP131 T01830106 403280139

Closest aviation forecast (TAF) to Camp Parks Heliport

Closest forecast is Livermore Municipal Airport, 3.6 nm (6.6 km) ESE. Retrieved 2020/08/08 06:33 UTC (2 hours ago):

TAF KLVK 080530Z 0806/0906 27009KT P6SM SKC FM080800 VRB04KT P6SM SKC FM082100 29011KT P6SM SKC FM090400 30006KT P6SM SKC